Time;durP1;ratioP1;P1;durP2;ratioP2;P2;SDS_P1;SDS_P2;PMS_P1;PMS_P2;Temp;Humidity;BMP_temperature;BMP_pressure;BME280_temperature;BME280_humidity;BME280_pressure;Samples;Min_cycle;Max_cycle;Signal;HPM_P1;HPM_P2
2022/06/23 00:01:26;;;;;;;11.38;10.10;;;;;;;20.90;61.22;92597.63;4982252;28;20217;-76
2022/06/23 00:03:56;;;;;;;16.35;10.10;;;;;;;20.80;61.37;92608.72;4984404;28;20185;-76
2022/06/23 00:06:36;;;;;;;11.70;10.70;;;;;;;20.68;62.20;92609.56;4987753;28;20296;-76
2022/06/23 00:09:19;;;;;;;11.52;10.05;;;;;;;20.80;61.96;92609.50;5001549;28;20204;-76
2022/06/23 00:11:49;;;;;;;12.35;11.15;;;;;;;20.76;62.14;92607.88;4989721;28;20278;-76
2022/06/23 00:14:14;;;;;;;11.20;10.30;;;;;;;20.59;62.36;92577.13;4981423;28;20255;-76
2022/06/23 00:16:40;;;;;;;12.10;10.23;;;;;;;20.72;62.11;92599.81;4981997;28;20224;-76
2022/06/23 00:19:07;;;;;;;13.35;10.88;;;;;;;20.55;63.39;92589.50;4981347;28;20185;-76
2022/06/23 00:21:34;;;;;;;11.27;10.00;;;;;;;20.50;63.02;92610.97;4983764;28;20236;-76
2022/06/23 00:24:06;;;;;;;10.98;9.93;;;;;;;20.48;63.54;92602.59;4979312;28;20352;-76
2022/06/23 00:26:34;;;;;;;11.50;10.55;;;;;;;20.35;63.96;92599.22;4981281;28;20272;-76
2022/06/23 00:29:03;;;;;;;10.25;9.25;;;;;;;20.48;64.03;92611.31;4982826;28;20202;-76
2022/06/23 00:31:52;;;;;;;11.93;10.65;;;;;;;20.44;64.00;92597.19;4991266;28;20241;-76
2022/06/23 00:34:33;;;;;;;12.63;11.15;;;;;;;20.32;65.03;92593.81;4985796;28;20199;-76
2022/06/23 00:37:07;;;;;;;12.23;11.02;;;;;;;20.39;65.70;92594.00;5001500;28;20250;-76
2022/06/23 00:39:41;;;;;;;13.00;11.82;;;;;;;20.46;65.67;92583.59;4998217;28;20199;-76
2022/06/23 00:42:21;;;;;;;12.85;11.45;;;;;;;20.19;66.94;92550.69;4999872;28;20224;-76
2022/06/23 00:45:04;;;;;;;11.60;10.48;;;;;;;20.36;66.40;92553.03;5003122;28;20191;-76
2022/06/23 00:47:40;;;;;;;12.02;10.80;;;;;;;20.19;67.00;92541.94;5002053;28;20227;-76
2022/06/23 00:50:18;;;;;;;13.20;10.98;;;;;;;20.06;68.04;92565.06;5000358;28;20214;-76
2022/06/23 00:52:54;;;;;;;12.55;11.15;;;;;;;19.74;68.80;92566.06;5001439;28;20218;-76
2022/06/23 00:55:37;;;;;;;15.27;12.13;;;;;;;19.96;68.49;92593.94;5002141;28;20193;-76
2022/06/23 00:58:16;;;;;;;11.48;10.20;;;;;;;19.86;68.47;92576.63;4999413;28;20799;-76
2022/06/23 01:00:42;;;;;;;13.27;12.05;;;;;;;19.78;68.42;92569.56;5002298;28;20251;-76
2022/06/23 01:03:07;;;;;;;12.20;11.20;;;;;;;19.90;68.50;92593.41;5002266;28;20201;-76
2022/06/23 01:05:48;;;;;;;16.73;11.73;;;;;;;19.86;68.87;92586.47;4987559;28;20196;-76
2022/06/23 01:08:46;;;;;;;12.37;11.03;;;;;;;19.70;69.20;92570.50;4990053;28;20197;-76
2022/06/23 01:11:33;;;;;;;12.13;10.70;;;;;;;19.60;70.13;92581.53;4955893;28;20232;-76
2022/06/23 01:14:27;;;;;;;12.23;11.23;;;;;;;19.65;70.58;92576.00;4998926;28;20233;-76
2022/06/23 01:17:00;;;;;;;14.40;10.98;;;;;;;19.65;71.04;92564.63;5001297;28;20226;-76
2022/06/23 01:19:57;;;;;;;11.67;10.77;;;;;;;19.47;71.45;92564.13;5002608;28;20209;-76
2022/06/23 01:22:48;;;;;;;12.03;10.93;;;;;;;19.57;71.62;92568.97;4923538;28;20295;-76
2022/06/23 01:25:37;;;;;;;12.35;11.07;;;;;;;19.48;71.85;92557.72;5002043;28;20748;-76
2022/06/23 01:28:18;;;;;;;12.73;11.43;;;;;;;19.39;72.09;92551.78;4999543;28;20237;-76
2022/06/23 01:30:49;;;;;;;12.47;11.23;;;;;;;19.44;72.18;92548.13;5002208;28;20230;-76
2022/06/23 01:33:36;;;;;;;12.37;10.70;;;;;;;19.18;72.93;92561.69;5006269;28;20256;-76
2022/06/23 01:36:20;;;;;;;11.70;10.60;;;;;;;19.10;72.25;92555.41;5004383;28;20234;-76
2022/06/23 01:39:07;;;;;;;15.60;11.00;;;;;;;19.00;73.61;92545.25;5004855;28;20209;-74
2022/06/23 01:41:41;;;;;;;16.37;10.90;;;;;;;19.11;72.88;92545.59;5004135;28;20253;-78
2022/06/23 01:44:07;;;;;;;12.33;11.17;;;;;;;19.18;72.53;92540.53;4994859;28;20232;-77
2022/06/23 01:46:38;;;;;;;14.53;10.93;;;;;;;19.15;72.72;92541.19;5004190;28;20229;-78
2022/06/23 01:49:17;;;;;;;13.80;11.47;;;;;;;19.05;73.14;92542.41;5007486;28;20241;-78
2022/06/23 01:51:52;;;;;;;12.40;11.30;;;;;;;19.05;73.37;92537.09;5003602;28;20330;-78
2022/06/23 01:54:20;;;;;;;12.90;11.60;;;;;;;19.10;72.97;92539.53;5008016;28;20185;-78
2022/06/23 01:57:13;;;;;;;13.57;12.03;;;;;;;19.16;72.61;92532.13;5002576;28;20232;-77
2022/06/23 02:00:09;;;;;;;13.37;12.17;;;;;;;19.04;72.96;92529.50;5004301;28;20290;-78
2022/06/23 02:02:59;;;;;;;12.27;11.17;;;;;;;19.00;73.33;92533.94;5004975;28;20226;-77
2022/06/23 02:05:43;;;;;;;12.40;11.23;;;;;;;18.91;73.65;92520.03;4994959;28;20199;-77
2022/06/23 02:08:30;;;;;;;11.57;10.77;;;;;;;18.92;73.68;92509.13;5002215;28;20297;-77
2022/06/23 02:11:30;;;;;;;11.93;10.83;;;;;;;18.93;73.83;92504.59;4997214;28;20245;-77
2022/06/23 02:14:02;;;;;;;17.13;12.53;;;;;;;18.74;74.44;92494.56;4962063;28;20186;-77
2022/06/23 02:16:31;;;;;;;11.13;10.20;;;;;;;18.81;74.99;92521.25;4993426;28;20220;-78
2022/06/23 02:19:08;;;;;;;13.17;11.80;;;;;;;18.89;74.68;92516.94;5005729;28;20220;-78
2022/06/23 02:21:56;;;;;;;14.17;12.00;;;;;;;18.83;75.08;92510.34;5008179;28;20281;-78
2022/06/23 02:24:37;;;;;;;13.17;11.97;;;;;;;18.92;74.93;92514.41;5004889;28;20188;-78
2022/06/23 02:27:13;;;;;;;12.30;11.20;;;;;;;18.76;74.96;92500.31;5002963;28;20256;-78
2022/06/23 02:29:48;;;;;;;15.33;12.13;;;;;;;18.74;75.33;92504.38;5004531;28;20196;-78
2022/06/23 02:32:25;;;;;;;12.87;11.70;;;;;;;18.72;75.80;92512.63;5004704;28;20223;-78
2022/06/23 02:35:02;;;;;;;12.87;11.87;;;;;;;18.65;75.78;92490.47;5004184;28;20200;-78
2022/06/23 02:37:59;;;;;;;14.27;12.87;;;;;;;18.71;76.07;92507.66;5002829;28;20232;-78
2022/06/23 02:40:46;;;;;;;13.87;12.40;;;;;;;18.71;76.57;92515.59;4999512;28;20220;-78
2022/06/23 02:43:44;;;;;;;13.60;12.33;;;;;;;18.64;76.50;92510.88;5003052;28;20613;-78
2022/06/23 02:46:54;;;;;;;13.77;12.53;;;;;;;18.71;76.63;92520.88;5001537;28;21088;-78
2022/06/23 02:49:56;;;;;;;14.63;12.13;;;;;;;18.60;77.48;92525.09;4985175;28;20225;-78
2022/06/23 02:52:25;;;;;;;15.77;12.23;;;;;;;18.50;77.92;92523.66;4999630;28;20228;-79
2022/06/23 02:54:57;;;;;;;13.27;11.97;;;;;;;18.30;77.41;92494.59;5002793;28;20204;-79
2022/06/23 02:57:36;;;;;;;13.93;11.83;;;;;;;18.51;77.77;92524.41;5002608;28;20221;-79
2022/06/23 03:00:04;;;;;;;12.67;11.57;;;;;;;18.58;77.71;92525.44;5002593;28;20185;-79
2022/06/23 03:02:51;;;;;;;14.50;13.00;;;;;;;18.56;78.09;92529.47;5003994;28;20233;-79
2022/06/23 03:05:39;;;;;;;12.73;11.63;;;;;;;18.31;77.94;92490.84;5004901;28;20197;-79
2022/06/23 03:08:12;;;;;;;14.03;12.67;;;;;;;18.38;78.17;92517.56;4988143;28;20259;-79
2022/06/23 03:10:41;;;;;;;13.33;12.03;;;;;;;18.57;77.56;92526.50;4972563;28;20242;-79
2022/06/23 03:13:09;;;;;;;13.33;12.27;;;;;;;18.73;76.90;92538.00;4972278;28;20332;-79
2022/06/23 03:16:05;;;;;;;15.17;11.70;;;;;;;18.80;76.17;92518.94;4971084;28;20190;-79
2022/06/23 03:18:55;;;;;;;13.13;12.07;;;;;;;19.04;75.36;92529.50;4966079;28;20278;-79
2022/06/23 03:21:30;;;;;;;14.33;12.90;;;;;;;19.21;73.86;92516.03;4967676;28;20231;-79
2022/06/23 03:23:55;;;;;;;13.47;12.20;;;;;;;19.41;73.82;92538.22;4951366;29;20196;-78
2022/06/23 03:26:35;;;;;;;13.73;12.53;;;;;;;19.42;73.42;92540.53;4952157;29;20226;-79
2022/06/23 03:29:18;;;;;;;12.33;11.17;;;;;;;19.72;72.37;92525.88;4950787;29;20182;-79
2022/06/23 03:32:20;;;;;;;14.57;12.73;;;;;;;20.00;71.12;92528.56;4952818;29;20243;-79
2022/06/23 03:35:01;;;;;;;12.83;11.67;;;;;;;20.24;70.52;92521.28;4967444;28;20198;-78
2022/06/23 03:37:26;;;;;;;14.90;12.13;;;;;;;20.45;70.11;92527.13;4967427;28;20239;-78
2022/06/23 03:43:00;;;;;;;16.97;11.37;;;;;;;20.81;68.90;92520.81;4970985;29;20781;-79
2022/06/23 03:45:38;;;;;;;13.10;11.87;;;;;;;20.41;69.84;92489.16;4971509;28;20210;-80
2022/06/23 03:48:26;;;;;;;12.85;11.68;;;;;;;20.80;69.17;92508.66;4970612;28;20195;-82
2022/06/23 03:50:57;;;;;;;13.77;11.40;;;;;;;21.01;68.75;92521.69;4971714;28;20240;-79
2022/06/23 03:53:32;;;;;;;11.98;10.98;;;;;;;21.46;67.39;92514.00;4972094;29;20216;-78
2022/06/23 03:56:07;;;;;;;13.00;11.90;;;;;;;21.80;66.20;92519.31;4970084;28;20259;-77
2022/06/23 03:58:59;;;;;;;11.50;10.55;;;;;;;22.14;64.59;92533.63;4972386;28;20199;-79
2022/06/23 04:01:40;;;;;;;12.20;11.10;;;;;;;22.49;63.77;92531.63;4970249;29;20266;-75
2022/06/23 04:04:21;;;;;;;12.18;10.88;;;;;;;22.33;65.06;92525.66;4968253;28;20204;-77
2022/06/23 04:06:49;;;;;;;12.00;11.00;;;;;;;22.48;63.30;92524.00;4983408;28;20251;-77
2022/06/23 04:09:28;;;;;;;12.50;11.38;;;;;;;22.67;60.99;92530.09;5002788;28;20199;-72
2022/06/23 04:12:14;;;;;;;12.27;11.18;;;;;;;22.88;61.15;92541.09;5001874;28;20392;-70
2022/06/23 04:14:50;;;;;;;13.43;12.15;;;;;;;23.13;60.16;92542.25;5003986;28;21000;-74
2022/06/23 04:17:22;;;;;;;12.25;11.25;;;;;;;23.09;60.67;92528.13;5002855;28;20223;-77
2022/06/23 04:20:15;;;;;;;13.50;12.07;;;;;;;23.23;58.80;92528.34;5000587;28;20199;-78
2022/06/23 04:22:50;;;;;;;13.75;11.57;;;;;;;23.33;57.94;92540.31;5001277;28;20306;-80
2022/06/23 04:25:22;;;;;;;12.80;11.60;;;;;;;22.99;61.41;92542.03;5004944;28;20191;-81
2022/06/23 04:27:52;;;;;;;12.40;11.38;;;;;;;23.19;59.90;92551.47;5001421;28;20244;-81
2022/06/23 04:30:33;;;;;;;13.07;12.00;;;;;;;23.52;58.84;92551.63;5001213;28;20231;-78
2022/06/23 04:33:03;;;;;;;12.93;11.57;;;;;;;23.67;58.35;92544.63;5003576;28;20185;-84
2022/06/23 04:35:33;;;;;;;12.40;11.20;;;;;;;24.76;54.75;92540.63;5004196;28;20191;-78
2022/06/23 04:38:10;;;;;;;17.35;11.85;;;;;;;26.40;50.14;92557.03;5001839;28;20201;-76
2022/06/23 04:41:00;;;;;;;12.57;11.35;;;;;;;25.67;52.47;92538.69;5002357;28;20201;-76
2022/06/23 04:43:40;;;;;;;12.00;10.80;;;;;;;24.99;53.82;92536.63;5000582;28;20206;-76
2022/06/23 04:46:20;;;;;;;11.90;10.80;;;;;;;24.73;53.93;92528.00;5003710;28;20226;-76
2022/06/23 04:48:53;;;;;;;13.23;10.98;;;;;;;24.67;53.28;92540.16;5005164;28;20200;-76
2022/06/23 04:51:32;;;;;;;13.45;12.10;;;;;;;23.91;57.04;92528.16;5002360;28;20259;-77
2022/06/23 04:54:03;;;;;;;12.20;11.10;;;;;;;23.62;58.04;92536.94;5003602;28;20197;-76
2022/06/23 04:56:46;;;;;;;12.02;11.02;;;;;;;24.17;55.43;92538.81;5002805;28;20244;-77
2022/06/23 04:59:32;;;;;;;12.23;11.02;;;;;;;24.48;56.23;92549.09;4983103;28;20189;-74
2022/06/23 05:02:15;;;;;;;13.88;11.48;;;;;;;24.55;55.20;92524.34;5002734;28;20942;-76
2022/06/23 05:04:44;;;;;;;11.45;10.18;;;;;;;25.14;52.81;92535.59;5001918;28;20186;-76
2022/06/23 05:07:32;;;;;;;12.02;10.93;;;;;;;26.04;50.16;92544.63;4999858;28;20297;-77
2022/06/23 05:10:02;;;;;;;12.32;11.13;;;;;;;26.68;48.92;92524.22;4974294;28;20650;-78
2022/06/23 05:12:33;;;;;;;12.05;10.25;;;;;;;26.88;47.75;92512.00;4996947;28;20313;-77
2022/06/23 05:15:13;;;;;;;11.05;10.10;;;;;;;30.08;40.71;92550.97;5001089;28;20191;-81
2022/06/23 05:17:49;;;;;;;11.05;10.15;;;;;;;30.87;37.61;92518.09;5000875;28;20227;-74
2022/06/23 05:20:23;;;;;;;11.85;10.88;;;;;;;31.41;36.55;92530.41;5001120;28;20199;-78
2022/06/23 05:22:49;;;;;;;11.65;10.65;;;;;;;32.38;36.29;92548.03;4998499;28;20306;-83
2022/06/23 05:25:32;;;;;;;12.98;10.88;;;;;;;30.35;39.01;92557.25;5001360;28;20203;-82
2022/06/23 05:28:01;;;;;;;11.82;10.75;;;;;;;28.15;44.97;92547.59;5003445;28;20238;-82
2022/06/23 05:30:31;;;;;;;12.02;10.90;;;;;;;26.45;49.33;92531.81;5003147;28;20207;-82
2022/06/23 05:33:17;;;;;;;14.13;12.65;;;;;;;25.48;52.75;92522.88;4999092;28;20180;-82
2022/06/23 05:35:59;;;;;;;14.10;12.70;;;;;;;26.40;50.91;92530.25;5002606;28;20245;-81
2022/06/23 05:38:35;;;;;;;14.50;12.20;;;;;;;27.88;47.86;92546.50;5002698;28;20198;-82
2022/06/23 05:41:12;;;;;;;15.65;10.98;;;;;;;26.64;49.28;92572.47;5000268;28;20263;-81
2022/06/23 05:43:40;;;;;;;13.90;12.57;;;;;;;25.92;51.72;92536.91;5002859;28;20191;-78
2022/06/23 05:46:11;;;;;;;15.25;11.73;;;;;;;24.76;54.08;92519.25;5002818;28;20235;-80
2022/06/23 05:48:39;;;;;;;13.07;11.85;;;;;;;23.78;57.90;92521.53;5000747;28;20215;-80
2022/06/23 05:51:07;;;;;;;12.30;11.18;;;;;;;23.17;60.04;92552.97;5002379;28;20234;-80
2022/06/23 05:53:42;;;;;;;13.25;11.80;;;;;;;21.91;64.96;92556.72;4990374;28;20198;-81
2022/06/23 05:56:19;;;;;;;12.65;11.25;;;;;;;20.81;69.52;92610.28;4999069;28;20317;-80
2022/06/23 05:59:09;;;;;;;15.65;13.35;;;;;;;20.24;73.77;92868.63;5000433;28;20190;-82
2022/06/23 06:02:03;;;;;;;20.80;14.00;;;;;;;18.73;84.95;92916.25;5002376;28;20227;-75
2022/06/23 06:04:34;;;;;;;15.90;14.43;;;;;;;17.32;99.39;92825.19;5000886;28;20722;-79
2022/06/23 06:07:00;;;;;;;14.73;13.27;;;;;;;17.04;100.00;92816.09;5001781;28;20285;-79
2022/06/23 06:09:36;;;;;;;15.33;13.90;;;;;;;16.73;100.00;92818.13;5001646;28;20208;-78
2022/06/23 06:12:33;;;;;;;15.53;14.47;;;;;;;16.75;100.00;92784.31;5004610;28;20254;-76
2022/06/23 06:14:59;;;;;;;12.30;11.33;;;;;;;16.77;100.00;92760.28;5002667;28;20223;-87
2022/06/23 06:17:28;;;;;;;14.30;13.23;;;;;;;16.46;100.00;92736.75;4999186;28;20242;-84
2022/06/23 06:19:56;;;;;;;12.37;11.50;;;;;;;16.54;100.00;92720.16;5002126;28;20200;-81
2022/06/23 06:22:25;;;;;;;11.87;11.17;;;;;;;16.74;100.00;92719.50;5004284;28;20220;-82
2022/06/23 06:24:53;;;;;;;12.63;11.63;;;;;;;16.69;100.00;92710.97;5004647;28;20255;-85
2022/06/23 06:27:18;;;;;;;12.70;11.80;;;;;;;16.72;100.00;92705.06;5007235;28;20228;-81
2022/06/23 06:29:46;;;;;;;12.63;11.40;;;;;;;16.85;100.00;92694.34;5008097;28;20176;-80
2022/06/23 06:32:29;;;;;;;17.90;16.37;;;;;;;16.89;100.00;92694.47;4992868;28;20515;-80
2022/06/23 06:35:05;;;;;;;10.97;10.17;;;;;;;16.53;100.00;92630.84;5001533;28;20247;-80
2022/06/23 06:37:36;;;;;;;11.47;10.43;;;;;;;16.68;100.00;92654.84;5006967;28;20246;-81
2022/06/23 06:40:03;;;;;;;11.63;10.67;;;;;;;16.95;100.00;92683.44;5005211;28;20191;-78
2022/06/23 06:42:51;;;;;;;10.63;9.73;;;;;;;16.88;100.00;92672.63;5007620;28;20227;-77
2022/06/23 06:45:20;;;;;;;12.57;11.43;;;;;;;17.11;100.00;92681.06;5006438;28;20195;-79
2022/06/23 06:47:46;;;;;;;11.33;10.43;;;;;;;16.92;100.00;92620.78;5001579;28;20203;-81
2022/06/23 06:50:31;;;;;;;12.33;11.10;;;;;;;17.25;100.00;92620.94;5002018;28;20220;-80
2022/06/23 06:53:01;;;;;;;11.63;10.87;;;;;;;17.59;100.00;92618.91;5003889;28;20235;-80
2022/06/23 06:55:41;;;;;;;13.13;12.03;;;;;;;17.79;100.00;92600.78;5007037;28;20191;-81
2022/06/23 06:58:12;;;;;;;11.20;10.43;;;;;;;18.14;100.00;92618.66;5002830;28;20297;-81
2022/06/23 07:01:01;;;;;;;13.87;12.97;;;;;;;18.23;100.00;92615.94;5002871;28;20325;-79
2022/06/23 07:03:28;;;;;;;11.27;10.57;;;;;;;18.39;100.00;92627.47;5004538;28;20192;-78
2022/06/23 07:06:07;;;;;;;9.17;8.77;;;;;;;18.29;100.00;92617.31;5003902;28;21453;-78
2022/06/23 07:08:39;;;;;;;9.17;8.67;;;;;;;18.51;100.00;92638.09;5005254;28;20227;-77
2022/06/23 07:11:23;;;;;;;10.17;9.37;;;;;;;18.45;100.00;92634.09;5003071;28;20248;-79
2022/06/23 07:14:05;;;;;;;9.50;8.87;;;;;;;18.39;100.00;92611.63;5002038;28;20196;-77
2022/06/23 07:16:37;;;;;;;9.50;9.00;;;;;;;18.57;100.00;92621.69;5001641;28;20224;-77
2022/06/23 07:19:17;;;;;;;9.50;8.87;;;;;;;18.49;100.00;92627.84;5001103;28;20197;-77
2022/06/23 07:21:48;;;;;;;9.60;8.77;;;;;;;18.61;100.00;92616.53;5003467;28;20228;-77
2022/06/23 07:24:26;;;;;;;9.90;9.10;;;;;;;19.02;100.00;92629.59;5003076;28;20192;-77
2022/06/23 07:26:59;;;;;;;9.40;8.73;;;;;;;19.70;100.00;92646.53;5000271;28;20223;-76
2022/06/23 07:29:32;;;;;;;9.10;8.40;;;;;;;19.96;98.62;92644.28;5003765;28;20304;-77
2022/06/23 07:32:02;;;;;;;10.17;9.37;;;;;;;19.21;100.00;92656.31;5002802;28;20239;-79
2022/06/23 07:34:32;;;;;;;10.23;9.40;;;;;;;18.91;99.26;92671.59;5003398;28;20197;-79
2022/06/23 07:36:59;;;;;;;10.67;9.70;;;;;;;18.73;100.00;92672.09;5000905;28;20260;-78
2022/06/23 07:39:35;;;;;;;10.90;10.03;;;;;;;19.11;98.46;92696.47;5003769;28;20200;-82
2022/06/23 07:42:06;;;;;;;10.43;9.67;;;;;;;19.69;96.50;92688.13;5002486;28;20224;-82
2022/06/23 07:45:30;;;;;;;10.07;9.37;;;;;;;20.17;90.05;92693.41;5004984;28;20214;-80
2022/06/23 07:47:56;;;;;;;10.00;9.33;;;;;;;20.58;87.08;92687.78;4971092;28;20215;-84
2022/06/23 07:50:22;;;;;;;10.00;9.23;;;;;;;20.71;87.04;92693.81;4982516;28;20182;-87
2022/06/23 07:52:48;;;;;;;9.23;8.53;;;;;;;21.01;85.45;92718.91;4983836;28;20206;-84
2022/06/23 07:55:24;;;;;;;10.57;9.23;;;;;;;21.25;84.17;92707.38;4983700;28;20190;-80
2022/06/23 07:57:50;;;;;;;12.23;10.67;;;;;;;21.43;80.01;92692.66;5001330;28;20289;-78
2022/06/23 08:00:17;;;;;;;12.33;11.43;;;;;;;22.15;80.68;92714.13;5003450;28;20193;-79
2022/06/23 08:02:52;;;;;;;11.67;10.80;;;;;;;21.64;80.51;92722.41;5002913;28;20203;-79
2022/06/23 08:05:48;;;;;;;15.17;13.90;;;;;;;21.02;84.76;92701.88;5001694;28;20207;-79
2022/06/23 08:08:19;;;;;;;12.95;11.73;;;;;;;20.80;90.13;92709.56;4999914;28;20208;-79
2022/06/23 08:10:45;;;;;;;12.27;11.32;;;;;;;21.32;86.03;92694.28;4999205;28;20223;-79
2022/06/23 08:13:27;;;;;;;12.52;11.35;;;;;;;20.96;82.82;92697.94;5002043;28;20188;-79
2022/06/23 08:19:04;;;;;;;13.60;12.30;;;;;;;20.61;86.61;92716.28;5002063;28;20221;-79
2022/06/23 08:21:37;;;;;;;14.80;13.13;;;;;;;20.08;89.12;92711.28;4999059;28;20235;-79
2022/06/23 08:24:18;;;;;;;14.87;13.40;;;;;;;19.99;90.40;92686.78;5000552;28;20196;-79
2022/06/23 08:26:51;;;;;;;16.60;14.90;;;;;;;20.32;90.31;92684.78;5000369;28;20230;-78
2022/06/23 08:29:22;;;;;;;15.68;14.20;;;;;;;20.79;89.10;92690.22;4985496;28;20226;-79
2022/06/23 08:31:48;;;;;;;15.27;13.77;;;;;;;21.36;85.36;92695.91;5003312;28;20227;-78
2022/06/23 08:34:13;;;;;;;14.93;13.53;;;;;;;21.23;83.08;92694.44;5002795;28;20198;-77
2022/06/23 08:36:43;;;;;;;16.10;14.43;;;;;;;21.09;83.33;92664.13;5001310;28;20249;-78
2022/06/23 08:39:16;;;;;;;16.30;14.45;;;;;;;21.66;81.37;92685.63;5003014;28;20203;-82
2022/06/23 08:41:42;;;;;;;13.55;12.13;;;;;;;21.16;81.62;92686.31;4998734;28;20227;-79
2022/06/23 08:44:50;;;;;;;12.70;11.73;;;;;;;20.98;83.13;92697.59;5002384;28;20186;-78
2022/06/23 08:47:29;;;;;;;12.90;11.73;;;;;;;20.52;83.66;92646.69;4999971;28;20235;-79
2022/06/23 08:50:02;;;;;;;12.43;11.32;;;;;;;21.08;85.76;92691.75;5004651;28;20197;-77
2022/06/23 08:52:43;;;;;;;13.32;12.02;;;;;;;21.93;80.62;92692.75;5002545;28;20244;-80
2022/06/23 08:55:23;;;;;;;16.15;12.55;;;;;;;22.39;77.90;92689.19;5001866;28;20206;-78
2022/06/23 08:57:56;;;;;;;13.02;11.93;;;;;;;22.42;73.33;92667.22;5002985;28;20248;-77
2022/06/23 09:00:27;;;;;;;15.07;13.07;;;;;;;22.07;77.71;92671.78;5001792;28;20191;-77
2022/06/23 09:02:56;;;;;;;13.65;12.52;;;;;;;21.45;75.46;92679.78;5002848;28;20213;-75
2022/06/23 09:05:46;;;;;;;14.55;13.00;;;;;;;21.36;78.93;92676.53;4999763;28;20487;-76
2022/06/23 09:08:36;;;;;;;13.63;12.43;;;;;;;21.42;77.86;92680.47;4989867;28;20234;-76
2022/06/23 09:11:11;;;;;;;13.15;11.95;;;;;;;21.81;79.67;92663.59;5000628;28;20928;-78
2022/06/23 09:14:04;;;;;;;12.05;10.38;;;;;;;22.54;76.13;92693.69;4999361;28;20207;-80
2022/06/23 09:16:48;;;;;;;12.40;11.40;;;;;;;22.32;72.37;92672.31;4999702;28;20755;-77
2022/06/23 09:19:33;;;;;;;14.05;12.80;;;;;;;21.77;77.27;92660.09;5001995;28;20205;-77
2022/06/23 09:22:08;;;;;;;13.00;11.38;;;;;;;22.39;73.62;92683.09;4999772;28;20255;-76
2022/06/23 09:24:55;;;;;;;13.30;11.60;;;;;;;22.51;73.09;92673.13;5003242;28;20173;-76
2022/06/23 09:27:39;;;;;;;12.88;11.88;;;;;;;22.69;75.15;92663.59;5002169;28;20236;-76
2022/06/23 09:30:32;;;;;;;13.23;12.02;;;;;;;22.79;80.29;92663.03;5001183;28;20193;-75
2022/06/23 09:33:04;;;;;;;12.70;11.48;;;;;;;22.86;78.76;92649.84;5002893;28;20236;-77
2022/06/23 09:35:54;;;;;;;11.63;10.82;;;;;;;23.28;73.13;92644.53;5001707;28;20194;-77
2022/06/23 09:38:23;;;;;;;11.85;10.70;;;;;;;22.98;71.00;92641.69;5002279;28;20278;-77
2022/06/23 09:41:21;;;;;;;12.45;11.27;;;;;;;22.86;70.10;92623.22;5001852;28;20244;-78
2022/06/23 09:43:52;;;;;;;12.73;11.73;;;;;;;22.89;70.78;92651.81;5002539;28;20197;-77
2022/06/23 09:46:59;;;;;;;12.38;11.35;;;;;;;22.45;74.98;92642.56;5000612;28;20241;-77
2022/06/23 09:49:55;;;;;;;17.38;11.82;;;;;;;22.34;76.52;92635.47;4999218;28;20255;-78
2022/06/23 09:53:02;;;;;;;14.02;12.60;;;;;;;23.14;71.87;92641.59;5002290;28;20240;-78
2022/06/23 09:55:37;;;;;;;13.75;12.50;;;;;;;22.57;76.72;92642.44;5003636;28;20204;-78
2022/06/23 09:58:17;;;;;;;12.60;11.50;;;;;;;23.03;73.58;92638.75;5006487;28;20216;-78
2022/06/23 10:01:01;;;;;;;14.45;12.40;;;;;;;23.34;73.32;92637.78;5003366;28;20249;-77
2022/06/23 10:04:04;;;;;;;16.48;12.48;;;;;;;22.73;74.87;92600.53;5004859;28;20226;-77
2022/06/23 10:07:05;;;;;;;13.27;11.93;;;;;;;23.24;70.34;92633.78;4987743;28;20365;-77
2022/06/23 10:09:33;;;;;;;12.98;11.93;;;;;;;22.89;75.46;92649.16;4972768;28;20202;-76
2022/06/23 10:11:58;;;;;;;13.07;11.98;;;;;;;23.40;72.41;92639.00;5003448;28;20770;-79
2022/06/23 10:14:45;;;;;;;13.05;11.73;;;;;;;23.68;72.13;92653.56;5004836;28;20207;-77
2022/06/23 10:17:22;;;;;;;13.15;11.95;;;;;;;23.80;68.27;92643.84;5004373;28;20244;-77
2022/06/23 10:20:06;;;;;;;12.70;11.60;;;;;;;23.86;66.99;92656.47;5004744;28;20227;-76
2022/06/23 10:23:10;;;;;;;12.48;11.27;;;;;;;23.87;70.03;92655.38;5006213;28;20251;-78
2022/06/23 10:25:46;;;;;;;13.90;11.68;;;;;;;23.75;67.38;92648.31;4943435;29;20212;-79
2022/06/23 10:28:37;;;;;;;12.77;11.70;;;;;;;23.77;68.96;92645.28;4942199;29;20205;-77
2022/06/23 10:31:21;;;;;;;13.50;12.10;;;;;;;23.45;70.68;92644.81;4986574;28;20221;-79
2022/06/23 10:34:21;;;;;;;14.43;12.93;;;;;;;22.84;72.57;92630.78;5002856;28;20209;-79
2022/06/23 10:37:07;;;;;;;16.05;13.10;;;;;;;22.99;73.00;92613.94;4959169;28;20242;-78
2022/06/23 10:39:51;;;;;;;15.38;13.82;;;;;;;23.55;71.65;92619.44;5004849;28;20217;-78
2022/06/23 10:42:47;;;;;;;15.23;13.88;;;;;;;23.78;70.87;92615.59;5006243;28;20230;-78
2022/06/23 10:45:21;;;;;;;14.82;13.27;;;;;;;23.57;72.39;92593.97;5004805;28;20206;-77
2022/06/23 10:48:24;;;;;;;17.75;14.25;;;;;;;23.36;73.29;92603.56;5002170;28;20231;-78
2022/06/23 10:51:02;;;;;;;15.25;13.85;;;;;;;24.07;70.96;92608.03;5003681;28;20233;-76
2022/06/23 10:53:37;;;;;;;15.52;14.02;;;;;;;24.26;70.61;92586.56;5003242;28;20193;-76
2022/06/23 10:56:18;;;;;;;15.35;13.73;;;;;;;24.03;71.74;92615.22;5004792;28;20226;-76
2022/06/23 10:58:49;;;;;;;14.85;13.35;;;;;;;24.15;69.09;92607.78;5002857;28;20226;-77
2022/06/23 11:01:29;;;;;;;16.05;14.50;;;;;;;24.21;71.10;92613.56;5002144;28;20991;-77
2022/06/23 11:04:21;;;;;;;16.50;14.88;;;;;;;24.16;71.28;92608.53;5003640;28;20193;-79
2022/06/23 11:07:04;;;;;;;15.10;13.52;;;;;;;24.61;68.72;92619.00;4969090;28;20242;-77
2022/06/23 11:09:42;;;;;;;15.98;14.18;;;;;;;24.61;68.48;92608.31;4970672;29;20243;-79
2022/06/23 11:12:48;;;;;;;22.48;13.60;;;;;;;23.75;72.15;92599.59;4971036;28;20227;-78
2022/06/23 11:15:58;;;;;;;14.32;13.02;;;;;;;24.28;71.85;92598.41;4971501;28;20191;-78
2022/06/23 11:18:49;;;;;;;14.02;12.75;;;;;;;25.04;66.69;92602.31;4943918;28;20227;-82
2022/06/23 11:21:20;;;;;;;16.23;13.73;;;;;;;24.60;67.58;92604.13;4969588;28;20243;-79
2022/06/23 11:23:57;;;;;;;15.23;13.23;;;;;;;24.99;66.07;92610.66;4970597;28;20276;-78
2022/06/23 11:26:44;;;;;;;14.25;12.50;;;;;;;25.05;65.69;92601.19;4973281;28;20250;-77
2022/06/23 11:29:37;;;;;;;17.00;13.25;;;;;;;25.31;66.88;92614.38;4970566;29;20191;-77
2022/06/23 11:32:05;;;;;;;21.35;12.98;;;;;;;24.76;65.62;92615.38;4971005;28;20254;-77
2022/06/23 11:34:42;;;;;;;15.48;12.65;;;;;;;24.43;68.27;92631.38;4971820;29;20264;-77
2022/06/23 11:37:10;;;;;;;14.52;12.98;;;;;;;24.50;66.64;92640.22;4971096;28;20239;-77
2022/06/23 11:39:42;;;;;;;15.45;11.70;;;;;;;24.57;70.92;92636.88;4971818;28;20198;-78
2022/06/23 11:42:46;;;;;;;13.50;12.20;;;;;;;24.90;67.50;92631.56;4971311;28;20242;-77
2022/06/23 11:45:15;;;;;;;13.00;11.70;;;;;;;24.82;68.36;92636.06;4964608;29;20208;-77
2022/06/23 11:48:08;;;;;;;12.88;11.57;;;;;;;24.97;64.41;92628.94;4984133;28;20246;-78
2022/06/23 11:50:48;;;;;;;12.98;11.68;;;;;;;24.70;68.01;92627.53;4982616;28;20210;-78
2022/06/23 11:53:35;;;;;;;10.32;9.50;;;;;;;24.87;64.60;92643.72;4971976;29;20198;-81
2022/06/23 11:56:25;;;;;;;15.05;10.88;;;;;;;24.75;62.45;92653.91;4971086;28;20239;-81
2022/06/23 11:59:14;;;;;;;10.85;9.93;;;;;;;24.52;62.16;92647.88;4985698;28;20192;-78
2022/06/23 12:01:39;;;;;;;10.55;9.45;;;;;;;24.84;63.49;92633.78;4968649;28;20242;-79
2022/06/23 12:04:27;;;;;;;10.98;9.90;;;;;;;24.69;63.36;92636.66;4969975;29;20220;-77
2022/06/23 12:07:30;;;;;;;14.20;10.38;;;;;;;24.73;62.67;92637.50;4974355;28;20246;-76
2022/06/23 12:10:16;;;;;;;11.27;10.15;;;;;;;25.18;63.00;92621.91;4971266;28;20198;-76
2022/06/23 12:12:45;;;;;;;10.90;9.95;;;;;;;25.53;62.59;92618.03;4994790;28;20216;-75
2022/06/23 12:15:13;;;;;;;11.38;10.25;;;;;;;25.76;59.42;92608.66;4981341;28;20203;-77
2022/06/23 12:17:46;;;;;;;10.52;9.52;;;;;;;25.31;58.16;92613.63;4998759;28;20258;-78